Startpagina
METAR-TAF:

METAR-TAF

Vliegvelden :

Luchthaven Ivato

Antananarivo, Madagaskar

breedte: 18-48S, lengte: 047-29E, hoogte: 1279 m

Actueel weer

Dit bericht is 29 minuten geleden gemaakt, om 16:00 UTC
Wind 7 kt uit het oosten
Temperatuur 21°C
Vochtigheid 78%
Druk 1018 hPa
Zicht 10 km of meer
Weinig wolken op 1700 ft, Cumulonimbus.
Gebroken wolken op 2300 ft

METAR: FMMI 261600Z 09007KT 9999 FEW017CB BKN023 21/17 Q1018 NOSIG

Tijdstip: 19:29 (16:29 UTC)

Verwachting

Dit bericht is 5 uur en het 29 minuten geleden gemaakt, om 11:00 UTC
Verwachting geldig van 26 om 12 UTC tot 27 om 18 UTC
Wind 10 kt uit het oostzuidoosten
Zicht 10 km of meer
Verspreide wolken op 1700 ft, Cumulonimbus.
Gebroken wolken op 2000 ft
Wijzigt naar
van 26 om 18 UTC tot 26 om 20 UTC
Weinig wolken op 700 ft
Gebroken wolken op 2000 ft

TAF: FMMI 261100Z 2612/2718 12010KT 9999 SCT017CB BKN020 BECMG 2618/2620 FEW007 BKN020

Waarnemingen en weersverwachtingen van meer dan 4000 vliegvelden (METAR en TAF).

De beschikbare stations zijn de gele en rode punten op de kaart.

Ga met uw muis naar het station om de naam te zien.

Klik dan om waarnemingen en weersverwachtingen te zien.

kaart wijzigen: klik op de groene knoppen met een zwart kruis om in te zoomen, op de groene knop met een streepje om uit te zoomen of op de groene pijlen voor aangrenzende kaarten.


METAR-TAF: